Time;durP1;ratioP1;P1;durP2;ratioP2;P2;SDS_P1;SDS_P2;PMS_P1;PMS_P2;Temp;Humidity;BMP_temperature;BMP_pressure;BME280_temperature;BME280_humidity;BME280_pressure;Samples;Min_cycle;Max_cycle;Signal;HPM_P1;HPM_P2
2023/11/27 00:00:27;;;;;;;8.13;5.38;;;24.30;99.90;;;;;;4972995;28;20484;-48
2023/11/27 00:02:53;;;;;;;8.25;5.63;;;24.30;99.90;;;;;;4971997;28;20543;-49
2023/11/27 00:05:19;;;;;;;7.18;5.00;;;24.30;99.90;;;;;;4973110;28;20105;-48
2023/11/27 00:07:45;;;;;;;8.77;5.70;;;24.20;99.90;;;;;;4971747;28;20533;-48
2023/11/27 00:10:11;;;;;;;6.13;4.70;;;24.20;99.90;;;;;;4971773;28;20027;-48
2023/11/27 00:12:37;;;;;;;9.80;5.70;;;24.20;99.90;;;;;;4973075;28;20356;-48
2023/11/27 00:15:03;;;;;;;9.10;5.95;;;24.20;99.90;;;;;;4973179;28;20391;-47
2023/11/27 00:17:29;;;;;;;9.13;5.10;;;24.20;99.90;;;;;;4972952;28;20078;-48
2023/11/27 00:19:55;;;;;;;10.88;5.50;;;24.10;99.90;;;;;;4972960;28;20269;-47
2023/11/27 00:22:21;;;;;;;7.90;5.45;;;24.20;99.90;;;;;;4974272;28;20023;-48
2023/11/27 00:24:46;;;;;;;7.45;5.38;;;24.10;99.90;;;;;;4976511;28;20553;-48
2023/11/27 00:27:12;;;;;;;8.52;4.95;;;24.10;99.90;;;;;;4976363;28;20045;-48
2023/11/27 00:29:39;;;;;;;7.80;4.43;;;24.10;99.90;;;;;;4976268;28;20023;-48
2023/11/27 00:32:05;;;;;;;6.07;4.55;;;24.10;99.90;;;;;;4976522;28;20023;-48
2023/11/27 00:34:31;;;;;;;7.32;4.95;;;24.10;99.90;;;;;;4976172;28;20118;-48
2023/11/27 00:36:57;;;;;;;6.78;5.07;;;24.10;99.90;;;;;;4974867;28;20499;-48
2023/11/27 00:39:24;;;;;;;7.10;4.70;;;24.10;99.90;;;;;;4976367;28;20065;-48
2023/11/27 00:41:49;;;;;;;7.90;4.68;;;24.00;99.90;;;;;;4976124;28;20474;-47
2023/11/27 00:44:15;;;;;;;7.70;5.10;;;24.00;99.90;;;;;;4974718;28;20093;-48
2023/11/27 00:46:41;;;;;;;8.15;4.63;;;24.00;99.90;;;;;;4974801;28;20030;-48
2023/11/27 00:49:07;;;;;;;5.28;3.92;;;24.00;99.90;;;;;;4974964;28;20030;-47
2023/11/27 00:51:33;;;;;;;7.00;4.50;;;24.00;99.90;;;;;;4975972;28;20033;-48
2023/11/27 00:53:59;;;;;;;6.10;4.60;;;24.00;99.90;;;;;;4975865;28;20025;-47
2023/11/27 00:56:25;;;;;;;6.10;4.50;;;24.00;99.90;;;;;;4975744;28;20031;-47
2023/11/27 00:58:51;;;;;;;6.57;4.70;;;23.90;99.90;;;;;;4974666;28;20066;-47
2023/11/27 01:01:17;;;;;;;8.38;4.68;;;23.90;99.90;;;;;;4975844;28;20447;-47
2023/11/27 01:03:43;;;;;;;6.70;4.60;;;23.90;99.90;;;;;;4975667;28;20045;-47
2023/11/27 01:06:15;;;;;;;6.13;4.38;;;23.90;99.90;;;;;;4976030;28;20022;-48
2023/11/27 01:08:41;;;;;;;8.32;4.70;;;23.90;99.90;;;;;;4974456;28;20031;-47
2023/11/27 01:11:08;;;;;;;6.95;4.43;;;23.90;99.90;;;;;;4975814;28;20030;-48
2023/11/27 01:13:34;;;;;;;6.07;4.03;;;23.90;99.90;;;;;;4975555;28;20042;-47
2023/11/27 01:16:00;;;;;;;11.57;4.32;;;23.90;99.90;;;;;;4975582;28;20027;-47
2023/11/27 01:18:27;;;;;;;5.47;3.80;;;23.80;99.90;;;;;;4975587;28;20097;-48
2023/11/27 01:20:53;;;;;;;5.53;3.67;;;23.80;99.90;;;;;;4975626;28;20444;-47
2023/11/27 01:23:19;;;;;;;5.85;4.22;;;23.80;99.90;;;;;;4975369;28;20121;-48
2023/11/27 01:25:45;;;;;;;5.55;3.80;;;23.80;99.90;;;;;;4975264;28;20146;-47
2023/11/27 01:28:11;;;;;;;4.55;3.70;;;23.80;99.90;;;;;;4975383;28;20027;-47
2023/11/27 01:30:37;;;;;;;6.53;4.03;;;23.80;99.90;;;;;;4975498;28;20026;-47
2023/11/27 01:33:06;;;;;;;7.93;4.00;;;23.80;99.90;;;;;;4974971;28;20019;-47
2023/11/27 01:35:32;;;;;;;6.57;4.15;;;23.80;99.90;;;;;;4975236;28;20170;-46
2023/11/27 01:37:58;;;;;;;5.18;3.80;;;23.70;99.90;;;;;;4975178;28;20550;-47
2023/11/27 01:40:24;;;;;;;7.05;3.50;;;23.70;99.90;;;;;;4973917;28;20043;-46
2023/11/27 01:42:50;;;;;;;5.35;3.90;;;23.70;99.90;;;;;;4975033;28;20376;-47
2023/11/27 01:45:16;;;;;;;5.53;3.60;;;23.70;99.90;;;;;;4975066;28;20035;-46
2023/11/27 01:47:42;;;;;;;5.82;4.22;;;23.70;99.90;;;;;;4974943;28;20034;-46
2023/11/27 01:50:09;;;;;;;4.43;3.75;;;23.70;99.90;;;;;;4975020;28;20049;-47
2023/11/27 01:52:38;;;;;;;4.57;3.53;;;23.70;99.90;;;;;;4974894;28;20388;-46
2023/11/27 01:55:05;;;;;;;5.78;3.47;;;23.70;99.90;;;;;;4974743;28;20118;-46
2023/11/27 01:57:32;;;;;;;5.18;3.47;;;23.70;99.90;;;;;;4973700;28;20030;-46
2023/11/27 01:59:58;;;;;;;5.47;3.80;;;23.60;99.90;;;;;;4974677;28;20031;-47
2023/11/27 02:02:24;;;;;;;5.03;4.03;;;23.60;99.90;;;;;;4975263;28;20023;-47
2023/11/27 02:04:51;;;;;;;5.03;3.03;;;23.60;99.90;;;;;;4973433;28;20041;-46
2023/11/27 02:07:17;;;;;;;5.57;3.67;;;23.60;99.90;;;;;;4974665;28;20023;-47
2023/11/27 02:09:43;;;;;;;6.55;4.10;;;23.60;99.90;;;;;;4974501;28;20077;-47
2023/11/27 02:12:09;;;;;;;4.45;3.78;;;23.60;99.90;;;;;;4974586;28;20430;-47
2023/11/27 02:14:35;;;;;;;5.07;3.65;;;23.60;99.90;;;;;;4974597;28;20038;-48
2023/11/27 02:17:01;;;;;;;6.97;3.53;;;23.60;99.90;;;;;;4973219;28;20027;-47
2023/11/27 02:19:26;;;;;;;4.93;3.70;;;23.60;99.90;;;;;;4973268;28;20037;-46
2023/11/27 02:21:52;;;;;;;6.30;3.65;;;23.60;99.90;;;;;;4974378;28;20102;-46
2023/11/27 02:24:18;;;;;;;4.88;3.25;;;23.50;99.90;;;;;;4974264;28;20497;-47
2023/11/27 02:26:44;;;;;;;4.40;3.17;;;23.50;99.90;;;;;;4973070;28;20027;-46
2023/11/27 02:29:10;;;;;;;4.93;3.70;;;23.50;99.90;;;;;;4974358;28;20154;-47
2023/11/27 02:31:37;;;;;;;4.38;3.33;;;23.50;99.90;;;;;;4974372;28;20026;-47
2023/11/27 02:34:03;;;;;;;5.35;3.17;;;23.50;99.90;;;;;;4974217;28;20026;-47
2023/11/27 02:36:38;;;;;;;4.75;3.20;;;23.50;99.90;;;;;;4974305;28;20027;-47
2023/11/27 02:39:06;;;;;;;4.45;3.30;;;23.40;99.90;;;;;;4972910;28;20468;-47
2023/11/27 02:41:38;;;;;;;5.70;4.00;;;23.40;99.90;;;;;;4973998;28;20384;-47
2023/11/27 02:44:05;;;;;;;6.22;3.38;;;23.40;99.90;;;;;;4972540;28;20049;-47
2023/11/27 02:46:31;;;;;;;7.38;3.47;;;23.40;99.90;;;;;;4973807;28;20038;-47
2023/11/27 02:48:57;;;;;;;4.15;2.72;;;23.40;99.90;;;;;;4974168;28;20030;-47
2023/11/27 02:51:23;;;;;;;4.80;3.50;;;23.40;99.90;;;;;;4973959;28;20093;-46
2023/11/27 02:53:48;;;;;;;3.33;2.67;;;23.40;99.90;;;;;;4974042;28;20383;-50
2023/11/27 02:56:14;;;;;;;5.13;3.30;;;23.40;99.90;;;;;;4973825;28;20387;-46
2023/11/27 02:58:41;;;;;;;5.82;4.00;;;23.40;99.90;;;;;;4973742;28;20034;-46
2023/11/27 03:01:07;;;;;;;4.18;2.90;;;23.30;99.90;;;;;;4991732;23;20434;-46
2023/11/27 03:03:35;;;;;;;4.45;3.08;;;23.30;99.90;;;;;;4992882;28;20459;-46
2023/11/27 03:06:07;;;;;;;4.85;3.33;;;23.30;99.90;;;;;;4992949;28;20043;-45
2023/11/27 03:08:33;;;;;;;4.20;3.33;;;23.30;99.90;;;;;;4993053;28;20485;-45
2023/11/27 03:10:58;;;;;;;4.03;3.35;;;23.30;99.90;;;;;;4993265;28;20030;-46
2023/11/27 03:13:24;;;;;;;4.40;3.35;;;23.30;99.90;;;;;;4993108;28;20400;-45
2023/11/27 03:15:51;;;;;;;4.43;2.92;;;23.20;99.90;;;;;;4993027;28;20094;-45
2023/11/27 03:18:17;;;;;;;5.10;3.37;;;23.20;99.90;;;;;;4992909;28;20026;-45
2023/11/27 03:20:43;;;;;;;5.68;3.33;;;23.20;99.90;;;;;;4992824;28;20461;-46
2023/11/27 03:23:09;;;;;;;4.23;3.10;;;23.20;99.90;;;;;;4992929;28;20105;-46
2023/11/27 03:25:35;;;;;;;3.90;3.40;;;23.10;99.90;;;;;;4992945;28;20093;-45
2023/11/27 03:28:01;;;;;;;4.65;2.88;;;23.10;99.90;;;;;;4993177;28;20114;-46
2023/11/27 03:30:27;;;;;;;4.65;3.03;;;23.10;99.90;;;;;;4992991;28;20062;-46
2023/11/27 03:32:53;;;;;;;3.67;3.28;;;23.10;99.90;;;;;;4992883;28;20495;-46
2023/11/27 03:35:18;;;;;;;6.25;3.35;;;23.10;99.90;;;;;;4992817;28;20030;-46
2023/11/27 03:37:44;;;;;;;4.53;2.97;;;23.10;99.90;;;;;;4992886;28;20110;-45
2023/11/27 03:40:10;;;;;;;3.40;2.85;;;23.10;99.90;;;;;;4992834;28;20102;-46
2023/11/27 03:42:36;;;;;;;3.85;2.88;;;23.10;99.90;;;;;;5004858;28;20027;-46
2023/11/27 03:45:02;;;;;;;3.35;2.90;;;23.10;99.90;;;;;;4992049;28;20042;-46
2023/11/27 03:47:28;;;;;;;4.55;3.05;;;23.00;99.90;;;;;;4991881;28;20029;-45
2023/11/27 03:49:54;;;;;;;4.72;3.33;;;23.00;99.90;;;;;;4991333;28;20023;-46
2023/11/27 03:52:23;;;;;;;6.13;3.20;;;23.00;99.90;;;;;;4991977;28;20029;-46
2023/11/27 03:54:49;;;;;;;5.82;3.63;;;23.00;99.90;;;;;;4992337;28;20033;-46
2023/11/27 03:57:15;;;;;;;5.18;3.05;;;23.00;99.90;;;;;;4995725;28;20019;-45
2023/11/27 03:59:41;;;;;;;6.47;3.03;;;23.00;99.90;;;;;;4996607;28;20041;-46
2023/11/27 04:02:09;;;;;;;4.82;3.35;;;23.00;99.90;;;;;;5012697;22;20054;-47
2023/11/27 04:04:36;;;;;;;;;;;23.00;99.90;;;;;;4996632;28;20034;-46
2023/11/27 04:07:02;;;;;;;4.00;3.17;;;23.00;99.90;;;;;;4996458;28;19987;-47
2023/11/27 04:09:27;;;;;;;3.95;2.92;;;22.90;99.90;;;;;;4996329;28;20022;-46
2023/11/27 04:11:53;;;;;;;4.47;3.10;;;22.90;99.90;;;;;;4996151;28;20029;-47
2023/11/27 04:14:19;;;;;;;4.18;3.33;;;22.90;99.90;;;;;;4996143;28;20030;-47
2023/11/27 04:16:45;;;;;;;4.25;3.30;;;22.90;99.90;;;;;;4996134;28;20141;-47
2023/11/27 04:19:11;;;;;;;3.63;3.13;;;22.90;99.90;;;;;;4994769;28;20069;-47
2023/11/27 04:21:37;;;;;;;3.38;2.80;;;22.80;99.90;;;;;;4996089;28;20018;-46
2023/11/27 04:24:02;;;;;;;5.20;3.63;;;22.90;99.90;;;;;;4996190;28;20177;-47
2023/11/27 04:26:28;;;;;;;5.07;3.42;;;22.90;99.90;;;;;;4995992;28;20038;-48
2023/11/27 04:28:54;;;;;;;4.72;3.58;;;22.80;99.90;;;;;;4995877;28;20133;-47
2023/11/27 04:31:20;;;;;;;3.92;3.30;;;22.80;99.90;;;;;;4995741;28;20471;-47
2023/11/27 04:33:47;;;;;;;3.95;3.05;;;22.80;99.90;;;;;;4996032;28;20033;-47
2023/11/27 04:36:18;;;;;;;5.20;3.50;;;22.80;99.90;;;;;;4995729;28;20034;-47
2023/11/27 04:38:44;;;;;;;3.30;3.00;;;22.80;99.90;;;;;;4995783;28;20037;-47
2023/11/27 04:41:09;;;;;;;3.78;2.97;;;22.80;99.90;;;;;;4995754;28;20018;-46
2023/11/27 04:43:36;;;;;;;4.40;3.35;;;22.80;99.90;;;;;;4995735;28;20108;-47
2023/11/27 04:46:02;;;;;;;4.65;3.47;;;22.80;99.90;;;;;;4995824;28;20080;-46
2023/11/27 04:48:27;;;;;;;5.65;3.55;;;22.80;99.90;;;;;;4994358;28;20391;-47
2023/11/27 04:50:53;;;;;;;5.45;3.55;;;22.80;99.90;;;;;;4995632;28;20028;-47
2023/11/27 04:53:19;;;;;;;5.43;3.60;;;22.80;99.90;;;;;;4995422;28;20030;-47
2023/11/27 04:55:45;;;;;;;4.20;3.25;;;22.70;99.90;;;;;;4995440;28;20057;-47
2023/11/27 04:58:11;;;;;;;4.63;3.55;;;22.70;99.90;;;;;;4994213;28;20022;-47
2023/11/27 05:00:36;;;;;;;4.45;3.20;;;22.70;99.90;;;;;;4995804;28;20022;-46
2023/11/27 05:03:02;;;;;;;4.00;3.35;;;22.70;99.90;;;;;;4995287;28;20064;-47
2023/11/27 05:05:28;;;;;;;4.07;2.85;;;22.60;99.90;;;;;;4995330;28;20398;-47
2023/11/27 05:07:54;;;;;;;4.28;3.20;;;22.70;99.90;;;;;;4994526;28;20533;-47
2023/11/27 05:10:20;;;;;;;4.43;3.10;;;22.70;99.90;;;;;;4995173;28;20378;-47
2023/11/27 05:12:45;;;;;;;5.07;3.42;;;22.60;99.90;;;;;;4993824;28;20102;-47
2023/11/27 05:15:11;;;;;;;4.60;3.28;;;22.60;99.90;;;;;;4977657;28;20478;-48
2023/11/27 05:17:37;;;;;;;4.75;2.83;;;22.70;99.90;;;;;;4994016;28;20030;-47
2023/11/27 05:20:04;;;;;;;5.15;3.63;;;22.60;99.90;;;;;;4995113;28;20548;-47
2023/11/27 05:22:29;;;;;;;5.47;3.13;;;22.60;99.90;;;;;;4993593;28;20108;-48
2023/11/27 05:24:55;;;;;;;4.18;3.38;;;22.60;99.90;;;;;;4994920;28;20109;-47
2023/11/27 05:27:23;;;;;;;4.78;3.10;;;22.60;99.90;;;;;;4993616;28;20382;-47
2023/11/27 05:29:49;;;;;;;4.30;3.17;;;22.60;99.90;;;;;;4994840;28;20033;-47
2023/11/27 05:32:16;;;;;;;3.65;2.88;;;22.60;99.90;;;;;;4994642;28;20019;-47
2023/11/27 05:34:42;;;;;;;3.63;2.92;;;22.60;99.90;;;;;;4994668;28;20075;-48
2023/11/27 05:37:08;;;;;;;4.43;3.53;;;22.60;99.90;;;;;;4993641;28;20062;-47
2023/11/27 05:39:35;;;;;;;4.00;3.20;;;22.50;99.90;;;;;;4994798;28;20097;-47
2023/11/27 05:42:02;;;;;;;4.78;3.05;;;22.50;99.90;;;;;;4994497;28;20046;-47
2023/11/27 05:44:29;;;;;;;4.47;2.93;;;22.50;99.90;;;;;;4994609;28;20395;-47
2023/11/27 05:46:55;;;;;;;4.90;3.30;;;22.50;99.90;;;;;;4994501;28;20105;-46
2023/11/27 05:49:21;;;;;;;3.67;3.00;;;22.50;99.90;;;;;;4994408;28;20022;-47
2023/11/27 05:51:47;;;;;;;4.15;3.65;;;22.50;99.90;;;;;;4994340;28;20076;-47
2023/11/27 05:54:12;;;;;;;6.47;3.53;;;22.50;99.90;;;;;;4994322;28;20034;-47
2023/11/27 05:56:38;;;;;;;4.13;3.47;;;22.50;99.90;;;;;;4994485;28;20022;-47
2023/11/27 05:59:04;;;;;;;4.43;3.17;;;22.50;99.90;;;;;;4994317;28;20027;-47
2023/11/27 06:01:31;;;;;;;4.72;3.42;;;22.50;99.90;;;;;;4988177;28;20046;-46
2023/11/27 06:03:57;;;;;;;3.97;3.38;;;22.40;99.90;;;;;;4973771;28;20027;-47
2023/11/27 06:06:22;;;;;;;4.75;3.08;;;22.50;99.90;;;;;;4972445;28;20023;-47
2023/11/27 06:08:49;;;;;;;3.97;3.00;;;22.50;99.90;;;;;;4973159;28;20507;-46
2023/11/27 06:11:15;;;;;;;4.45;3.33;;;22.40;99.90;;;;;;4988647;28;20081;-47
2023/11/27 06:13:41;;;;;;;5.15;3.38;;;22.40;99.90;;;;;;4989390;28;20034;-47
2023/11/27 06:16:09;;;;;;;4.93;3.45;;;22.40;99.90;;;;;;4974930;28;20038;-48
2023/11/27 06:18:35;;;;;;;3.83;3.00;;;22.40;99.90;;;;;;4974324;28;20153;-47
2023/11/27 06:21:02;;;;;;;5.07;3.72;;;22.40;99.90;;;;;;4973684;28;20134;-47
2023/11/27 06:23:27;;;;;;;4.17;3.10;;;22.40;99.90;;;;;;4974292;28;20027;-47
2023/11/27 06:25:53;;;;;;;3.78;3.33;;;22.40;99.90;;;;;;4974230;28;20398;-47
2023/11/27 06:28:20;;;;;;;5.13;3.65;;;22.40;99.90;;;;;;4974347;28;20023;-47
2023/11/27 06:30:46;;;;;;;4.67;3.37;;;22.40;99.90;;;;;;4974289;28;20027;-47
2023/11/27 06:33:11;;;;;;;4.00;3.10;;;22.40;99.90;;;;;;4974239;28;20031;-47
2023/11/27 06:35:37;;;;;;;5.30;3.35;;;22.40;99.90;;;;;;4974411;28;20110;-47
2023/11/27 06:38:03;;;;;;;4.43;3.50;;;22.30;99.90;;;;;;4974149;28;20491;-46
2023/11/27 06:40:29;;;;;;;5.15;3.53;;;22.30;99.90;;;;;;4974038;28;20023;-47
2023/11/27 06:42:56;;;;;;;5.68;3.63;;;22.30;99.90;;;;;;4973940;28;20031;-47
2023/11/27 06:45:22;;;;;;;4.53;3.80;;;22.30;99.90;;;;;;4973999;28;20114;-47
2023/11/27 06:47:48;;;;;;;5.70;3.90;;;22.30;99.90;;;;;;4973948;28;20299;-47
2023/11/27 06:50:17;;;;;;;8.25;4.03;;;22.30;99.90;;;;;;4973879;28;20031;-47
2023/11/27 06:52:43;;;;;;;8.27;4.03;;;22.30;99.90;;;;;;4973731;28;20054;-48
2023/11/27 06:55:10;;;;;;;4.35;3.75;;;22.30;99.90;;;;;;4973946;28;20133;-47
2023/11/27 06:57:35;;;;;;;6.05;4.28;;;22.30;99.90;;;;;;4988816;28;20079;-47
2023/11/27 07:00:03;;;;;;;5.70;4.10;;;22.30;99.90;;;;;;4973728;28;20034;-47
2023/11/27 07:02:30;;;;;;;6.25;3.90;;;22.30;99.90;;;;;;4973480;28;20046;-47
2023/11/27 07:04:57;;;;;;;7.00;4.40;;;22.30;99.90;;;;;;4973694;28;20066;-47
2023/11/27 07:07:23;;;;;;;4.57;3.25;;;22.20;99.90;;;;;;4973529;28;20018;-47
2023/11/27 07:09:49;;;;;;;6.18;4.03;;;22.20;99.90;;;;;;4973710;28;20065;-47
2023/11/27 07:12:16;;;;;;;6.85;3.92;;;22.20;99.90;;;;;;4973523;28;20070;-47
2023/11/27 07:14:42;;;;;;;5.15;3.95;;;22.20;99.90;;;;;;4973797;28;20054;-47
2023/11/27 07:17:07;;;;;;;6.82;4.70;;;22.20;99.90;;;;;;4973506;28;20495;-47
2023/11/27 07:19:33;;;;;;;5.20;3.97;;;22.20;99.90;;;;;;4973355;28;20110;-47
2023/11/27 07:22:01;;;;;;;6.80;4.80;;;22.20;99.90;;;;;;4973270;28;20031;-47
2023/11/27 07:24:27;;;;;;;4.70;3.70;;;22.20;99.90;;;;;;4973298;28;20030;-47
2023/11/27 07:26:54;;;;;;;6.50;4.10;;;22.20;99.90;;;;;;4973453;28;20097;-47
2023/11/27 07:29:20;;;;;;;6.18;4.30;;;22.20;99.90;;;;;;4973565;28;20468;-47
2023/11/27 07:31:46;;;;;;;6.50;4.25;;;22.20;99.90;;;;;;4974575;28;20038;-47
2023/11/27 07:34:13;;;;;;;5.53;4.10;;;22.20;99.90;;;;;;4977756;28;20055;-47
2023/11/27 07:36:39;;;;;;;7.80;4.45;;;22.20;99.90;;;;;;4977509;28;20023;-47
2023/11/27 07:39:07;;;;;;;5.65;4.57;;;22.20;99.90;;;;;;4977590;28;20117;-47
2023/11/27 07:41:34;;;;;;;8.02;4.30;;;22.20;99.90;;;;;;4977336;28;20033;-47
2023/11/27 07:44:00;;;;;;;5.32;3.95;;;22.30;99.90;;;;;;4977190;28;20398;-47
2023/11/27 07:46:26;;;;;;;7.40;4.35;;;22.30;99.90;;;;;;4975992;28;20110;-47
2023/11/27 07:48:52;;;;;;;9.38;4.80;;;22.30;99.90;;;;;;4977272;28;20131;-47
2023/11/27 07:51:18;;;;;;;7.28;5.40;;;22.30;99.90;;;;;;4976957;28;20029;-47
2023/11/27 07:53:44;;;;;;;5.82;4.55;;;22.40;99.90;;;;;;4977439;28;20034;-47
2023/11/27 07:56:10;;;;;;;5.78;4.53;;;22.40;99.90;;;;;;4977028;28;20356;-47
2023/11/27 07:58:36;;;;;;;8.27;4.95;;;22.40;99.90;;;;;;4976943;28;20035;-47
2023/11/27 08:01:03;;;;;;;6.88;4.35;;;22.40;99.90;;;;;;4976779;28;20046;-46
2023/11/27 08:03:29;;;;;;;5.70;4.30;;;22.50;99.90;;;;;;4976695;28;20502;-47
2023/11/27 08:05:55;;;;;;;7.72;3.65;;;22.50;99.90;;;;;;4976810;28;20030;-47
2023/11/27 08:08:21;;;;;;;7.60;4.75;;;22.50;99.90;;;;;;4976804;28;20147;-47
2023/11/27 08:10:47;;;;;;;12.27;4.25;;;22.50;99.90;;;;;;4976949;28;20027;-46
2023/11/27 08:13:12;;;;;;;6.63;4.47;;;22.60;99.90;;;;;;4976992;28;20023;-47
2023/11/27 08:15:38;;;;;;;7.13;4.60;;;22.60;99.90;;;;;;4975315;28;20394;-46
2023/11/27 08:18:05;;;;;;;5.30;4.28;;;22.70;99.90;;;;;;4976626;28;20034;-47
2023/11/27 08:20:32;;;;;;;5.85;4.38;;;22.60;99.90;;;;;;4976614;28;20031;-46
2023/11/27 08:22:59;;;;;;;9.15;4.97;;;22.70;99.90;;;;;;4976564;28;20054;-47
2023/11/27 08:25:28;;;;;;;5.72;4.32;;;22.70;99.90;;;;;;4991446;28;20065;-47
2023/11/27 08:27:57;;;;;;;6.15;3.83;;;22.70;99.90;;;;;;4976387;28;20423;-47
2023/11/27 08:30:24;;;;;;;6.95;4.28;;;22.80;99.90;;;;;;4976374;28;20030;-46
2023/11/27 08:32:50;;;;;;;5.03;4.15;;;22.80;99.90;;;;;;4976474;28;20382;-46
2023/11/27 08:35:19;;;;;;;5.75;4.68;;;22.80;99.90;;;;;;4976458;28;20027;-47
2023/11/27 08:37:45;;;;;;;5.82;4.05;;;22.90;99.90;;;;;;4976461;28;20088;-46
2023/11/27 08:40:14;;;;;;;5.93;4.00;;;22.90;99.90;;;;;;4976252;28;20471;-47
2023/11/27 08:42:41;;;;;;;9.23;4.32;;;22.90;99.90;;;;;;4975016;28;20034;-47
2023/11/27 08:45:10;;;;;;;5.43;3.60;;;22.90;99.90;;;;;;4991080;28;20034;-47
2023/11/27 08:47:38;;;;;;;7.28;4.18;;;22.90;99.90;;;;;;4976143;28;20117;-47
2023/11/27 08:50:05;;;;;;;7.00;3.78;;;23.00;99.90;;;;;;4976141;28;20022;-47
2023/11/27 08:52:31;;;;;;;5.03;3.47;;;23.00;99.90;;;;;;4976176;28;20039;-47
2023/11/27 08:54:57;;;;;;;6.32;3.72;;;23.10;99.90;;;;;;4976098;28;20130;-47
2023/11/27 08:57:24;;;;;;;6.45;4.00;;;23.10;99.90;;;;;;4975965;28;20027;-47
2023/11/27 08:59:50;;;;;;;6.72;3.88;;;23.10;99.90;;;;;;4975782;28;20510;-47
2023/11/27 09:02:17;;;;;;;5.13;3.58;;;23.10;99.90;;;;;;4975937;28;20047;-46
2023/11/27 09:04:43;;;;;;;6.53;3.93;;;23.20;99.90;;;;;;4975729;28;20035;-46
2023/11/27 09:07:11;;;;;;;4.82;3.67;;;23.20;99.90;;;;;;4975775;28;20106;-47
2023/11/27 09:09:37;;;;;;;6.82;3.90;;;23.20;99.90;;;;;;4975761;28;20031;-46
2023/11/27 09:12:04;;;;;;;4.45;3.50;;;23.20;99.90;;;;;;4975634;28;20027;-46
2023/11/27 09:14:30;;;;;;;5.07;3.58;;;23.30;99.90;;;;;;4975535;28;20380;-46
2023/11/27 09:16:55;;;;;;;5.90;3.80;;;23.30;99.90;;;;;;4975519;28;20019;-47
2023/11/27 09:19:21;;;;;;;9.02;4.07;;;23.30;99.90;;;;;;4975590;28;20033;-47
2023/11/27 09:21:47;;;;;;;4.88;3.88;;;23.40;99.90;;;;;;4990638;28;20027;-47
2023/11/27 09:24:13;;;;;;;6.38;4.00;;;23.40;99.90;;;;;;4975339;28;20122;-46
2023/11/27 09:26:39;;;;;;;4.82;3.50;;;23.40;99.90;;;;;;4975340;28;20481;-47
2023/11/27 09:29:05;;;;;;;4.22;3.78;;;23.50;99.90;;;;;;4975269;28;20034;-47
2023/11/27 09:31:30;;;;;;;5.15;3.50;;;23.50;99.90;;;;;;4975052;28;20058;-47
2023/11/27 09:33:57;;;;;;;6.28;3.47;;;23.50;99.90;;;;;;4975051;28;20034;-47
2023/11/27 09:36:23;;;;;;;5.15;3.45;;;23.60;99.90;;;;;;4975250;28;20446;-47
2023/11/27 09:38:49;;;;;;;4.93;3.45;;;23.60;99.90;;;;;;4975205;28;20109;-47
2023/11/27 09:41:16;;;;;;;5.35;3.55;;;23.60;99.90;;;;;;4974993;28;20050;-47
2023/11/27 09:43:42;;;;;;;3.70;3.33;;;23.70;99.90;;;;;;4974835;28;20046;-46
2023/11/27 09:46:16;;;;;;;5.57;3.50;;;23.70;99.90;;;;;;4973705;28;20033;-46
2023/11/27 09:48:44;;;;;;;5.82;3.25;;;23.70;99.90;;;;;;4974929;28;20034;-47
2023/11/27 09:51:13;;;;;;;4.35;3.83;;;23.70;99.90;;;;;;4974914;28;20015;-47
2023/11/27 09:53:49;;;;;;;5.78;3.30;;;23.80;99.90;;;;;;4974678;28;20023;-46
2023/11/27 09:56:15;;;;;;;4.72;3.50;;;23.80;99.90;;;;;;4974761;28;20027;-47
2023/11/27 09:58:43;;;;;;;5.00;3.75;;;23.90;99.90;;;;;;4989652;28;20027;-46
2023/11/27 10:01:13;;;;;;;4.72;3.03;;;23.90;99.90;;;;;;4974488;28;20038;-47
2023/11/27 10:03:42;;;;;;;4.50;3.42;;;23.90;99.90;;;;;;4989573;28;20039;-46
2023/11/27 10:06:11;;;;;;;5.03;3.38;;;24.00;99.90;;;;;;4974713;28;20454;-47
2023/11/27 10:08:37;;;;;;;3.28;2.97;;;24.00;99.90;;;;;;4989384;28;20086;-47
2023/11/27 10:11:03;;;;;;;4.68;3.20;;;24.10;99.90;;;;;;4974544;28;20026;-47
2023/11/27 10:13:34;;;;;;;3.53;2.83;;;24.10;99.90;;;;;;4974531;28;20388;-47
2023/11/27 10:16:09;;;;;;;4.18;3.35;;;24.20;99.90;;;;;;4989195;28;20019;-47
2023/11/27 10:18:35;;;;;;;4.85;3.33;;;24.20;99.90;;;;;;4974377;28;20483;-47
2023/11/27 10:21:14;;;;;;;5.65;3.45;;;24.30;99.90;;;;;;4974339;28;20050;-47
2023/11/27 10:23:41;;;;;;;3.35;3.03;;;24.30;99.90;;;;;;4974280;28;20031;-47
2023/11/27 10:26:07;;;;;;;3.50;2.90;;;24.40;99.90;;;;;;4974406;28;20023;-47
2023/11/27 10:28:45;;;;;;;5.20;3.10;;;24.40;99.90;;;;;;4972938;28;20030;-47
2023/11/27 10:31:11;;;;;;;5.32;3.05;;;24.50;99.90;;;;;;4972841;28;20125;-47
2023/11/27 10:33:37;;;;;;;7.70;2.97;;;24.50;99.90;;;;;;4974151;28;20079;-47
2023/11/27 10:36:05;;;;;;;10.10;3.13;;;24.50;99.90;;;;;;4974143;28;20487;-47
2023/11/27 10:38:33;;;;;;;4.95;3.08;;;24.60;99.90;;;;;;4974182;28;20026;-47
2023/11/27 10:41:02;;;;;;;4.60;3.08;;;24.60;99.90;;;;;;4974105;28;20126;-47
2023/11/27 10:43:28;;;;;;;5.53;3.38;;;24.70;99.90;;;;;;4973997;28;20034;-47
2023/11/27 10:45:57;;;;;;;3.42;2.80;;;24.70;99.90;;;;;;4974087;28;20412;-47
2023/11/27 10:48:24;;;;;;;6.25;3.30;;;24.70;99.90;;;;;;4974140;28;20033;-47
2023/11/27 10:50:52;;;;;;;3.67;2.90;;;24.80;99.90;;;;;;4974122;28;20027;-47
2023/11/27 10:53:19;;;;;;;;;;;24.80;99.90;;;;;;4973918;28;20051;-48
2023/11/27 10:55:47;;;;;;;4.00;2.80;;;24.90;99.90;;;;;;4973672;28;20274;-47
2023/11/27 10:58:14;;;;;;;7.38;3.55;;;24.90;99.90;;;;;;4973840;28;20057;-47
2023/11/27 11:00:46;;;;;;;14.02;3.33;;;24.90;99.90;;;;;;4973467;28;20019;-47
2023/11/27 11:03:19;;;;;;;4.60;3.38;;;25.00;99.90;;;;;;4973519;28;20031;-48
2023/11/27 11:05:53;;;;;;;4.53;2.70;;;25.00;99.90;;;;;;4972993;28;20019;-48
2023/11/27 11:08:26;;;;;;;3.60;2.50;;;25.00;99.90;;;;;;4973602;28;20023;-48
2023/11/27 11:10:56;;;;;;;6.38;3.20;;;25.00;99.90;;;;;;4973884;28;20109;-47
2023/11/27 11:13:24;;;;;;;3.90;3.03;;;25.10;99.90;;;;;;4972458;28;20027;-47
2023/11/27 11:16:08;;;;;;;7.90;4.03;;;25.10;99.90;;;;;;4973463;28;20470;-47
2023/11/27 11:19:06;;;;;;;5.30;2.92;;;25.10;99.90;;;;;;4973763;28;20019;-47
2023/11/27 11:22:10;;;;;;;16.40;3.70;;;25.20;99.90;;;;;;4973158;28;20045;-48
2023/11/27 11:25:14;;;;;;;13.85;3.50;;;25.20;99.90;;;;;;4973125;28;20059;-47
2023/11/27 11:28:18;;;;;;;8.32;3.38;;;25.20;99.90;;;;;;4971221;28;20052;-47
2023/11/27 11:31:04;;;;;;;5.32;3.38;;;25.30;99.90;;;;;;4942154;28;20398;-47
2023/11/27 11:33:31;;;;;;;6.63;2.90;;;25.30;99.90;;;;;;4972728;28;20038;-47
2023/11/27 11:35:58;;;;;;;5.30;3.70;;;25.30;99.90;;;;;;4973459;28;20031;-48
2023/11/27 11:38:27;;;;;;;4.88;3.00;;;25.40;99.90;;;;;;4973445;28;20019;-49
2023/11/27 11:40:53;;;;;;;4.65;3.28;;;25.40;99.90;;;;;;4973425;28;20085;-48
2023/11/27 11:43:22;;;;;;;5.25;3.22;;;25.40;99.90;;;;;;4988167;28;20042;-48
2023/11/27 11:45:49;;;;;;;6.45;3.00;;;25.40;99.90;;;;;;4973306;28;20027;-48
2023/11/27 11:48:18;;;;;;;3.10;2.80;;;25.50;99.90;;;;;;4973218;28;20053;-48
2023/11/27 11:50:46;;;;;;;5.47;3.10;;;25.50;99.90;;;;;;4973046;28;20035;-48
2023/11/27 11:53:18;;;;;;;4.60;2.90;;;25.50;99.90;;;;;;4973245;28;20031;-48
2023/11/27 11:55:47;;;;;;;5.45;2.92;;;25.50;99.90;;;;;;4973253;28;20023;-47
2023/11/27 11:58:19;;;;;;;4.82;3.47;;;25.60;99.90;;;;;;4973419;28;20416;-47
2023/11/27 12:00:50;;;;;;;6.85;3.88;;;25.60;99.90;;;;;;4973045;28;20069;-47
2023/11/27 12:03:20;;;;;;;3.63;3.10;;;25.60;99.90;;;;;;4973051;28;20037;-47
2023/11/27 12:05:57;;;;;;;5.70;3.20;;;25.60;99.90;;;;;;4988101;28;20061;-48
2023/11/27 12:08:26;;;;;;;6.05;3.58;;;25.70;99.90;;;;;;4973078;28;20379;-48
2023/11/27 12:10:52;;;;;;;6.00;3.78;;;25.70;99.90;;;;;;4973212;28;20058;-48
2023/11/27 12:13:23;;;;;;;7.23;3.33;;;25.70;99.90;;;;;;4973104;28;20093;-47
2023/11/27 12:15:57;;;;;;;5.65;3.78;;;25.70;99.90;;;;;;4972850;28;20265;-47
2023/11/27 12:18:25;;;;;;;4.65;3.22;;;25.70;99.90;;;;;;4975918;28;20031;-47
2023/11/27 12:20:52;;;;;;;4.72;3.25;;;25.80;99.90;;;;;;4976656;28;20154;-47
2023/11/27 12:23:18;;;;;;;3.85;2.97;;;25.80;99.90;;;;;;4976460;28;20394;-47
2023/11/27 12:25:45;;;;;;;6.80;3.20;;;25.80;99.90;;;;;;4976414;28;20027;-48
2023/11/27 12:28:12;;;;;;;3.28;2.65;;;25.90;99.90;;;;;;4991403;28;20027;-47
2023/11/27 12:30:39;;;;;;;5.85;3.15;;;25.90;99.90;;;;;;4976352;28;20033;-48
2023/11/27 12:33:06;;;;;;;7.57;3.70;;;25.90;99.90;;;;;;4976210;28;20526;-48
2023/11/27 12:35:33;;;;;;;5.35;3.47;;;25.90;99.90;;;;;;4976268;28;20090;-48
2023/11/27 12:38:06;;;;;;;5.82;3.72;;;25.90;99.90;;;;;;4976218;28;20023;-48
2023/11/27 12:40:33;;;;;;;6.35;3.88;;;25.90;99.90;;;;;;4976039;28;20041;-48
2023/11/27 12:43:00;;;;;;;4.78;3.58;;;26.00;99.90;;;;;;4976134;28;20031;-48
2023/11/27 12:45:27;;;;;;;4.70;3.88;;;26.00;99.90;;;;;;4976349;28;20027;-48
2023/11/27 12:47:57;;;;;;;4.50;3.42;;;26.00;99.90;;;;;;4976040;28;20452;-48